Time;durP1;ratioP1;P1;durP2;ratioP2;P2;SDS_P1;SDS_P2;PMS_P1;PMS_P2;Temp;Humidity;BMP_temperature;BMP_pressure;BME280_temperature;BME280_humidity;BME280_pressure;Samples;Min_cycle;Max_cycle;Signal;HPM_P1;HPM_P2
2024/04/11 00:02:09;;;;;;;64.10;8.80;;;;;;;;;;5490615;25;20042;-77
2024/04/11 00:04:35;;;;;;;55.50;7.68;;;;;;;;;;5488946;25;20070;-77
2024/04/11 00:07:03;;;;;;;51.45;8.25;;;;;;;;;;5490855;25;20070;-77
2024/04/11 00:09:29;;;;;;;45.40;6.35;;;;;;;;;;5490487;25;20074;-77
2024/04/11 00:11:56;;;;;;;59.42;8.85;;;;;;;;;;5488962;25;20362;-77
2024/04/11 00:14:24;;;;;;;54.35;9.68;;;;;;;;;;5488560;25;20028;-77
2024/04/11 00:16:52;;;;;;;60.50;7.67;;;;;;;;;;5489041;25;19998;-77
2024/04/11 00:19:19;;;;;;;56.92;8.98;;;;;;;;;;5490261;25;20508;-77
2024/04/11 00:21:48;;;;;;;50.95;9.00;;;;;;;;;;5490707;25;20010;-77
2024/04/11 00:24:15;;;;;;;57.65;8.48;;;;;;;;;;5490207;25;20298;-77
2024/04/11 00:26:42;;;;;;;66.15;9.88;;;;;;;;;;5505780;25;20073;-77
2024/04/11 00:29:10;;;;;;;62.20;8.77;;;;;;;;;;5489938;25;20489;-77
2024/04/11 00:31:39;;;;;;;38.67;9.33;;;;;;;;;;5490479;25;20002;-77
2024/04/11 00:34:23;;;;;;;57.70;9.82;;;;;;;;;;5489976;25;19998;-77
2024/04/11 00:36:53;;;;;;;53.10;9.10;;;;;;;;;;5488704;25;20429;-77
2024/04/11 00:39:23;;;;;;;47.90;9.05;;;;;;;;;;5488086;25;19994;-77
2024/04/11 00:41:50;;;;;;;49.08;8.73;;;;;;;;;;5490393;25;20006;-77
2024/04/11 00:44:18;;;;;;;48.08;9.60;;;;;;;;;;5489947;25;19998;-77
2024/04/11 00:46:46;;;;;;;58.80;10.07;;;;;;;;;;5490004;25;20312;-77
2024/04/11 00:49:15;;;;;;;62.08;9.40;;;;;;;;;;5489676;25;20001;-77
2024/04/11 00:51:42;;;;;;;43.88;7.50;;;;;;;;;;5490206;25;19994;-77
2024/04/11 00:54:10;;;;;;;47.58;8.00;;;;;;;;;;5489775;25;20002;-76
2024/04/11 00:56:40;;;;;;;46.97;6.70;;;;;;;;;;5488256;25;19994;-76
2024/04/11 00:59:08;;;;;;;46.15;7.10;;;;;;;;;;5487922;25;19994;-77
2024/04/11 01:01:35;;;;;;;52.55;7.85;;;;;;;;;;5490173;25;20006;-77
2024/04/11 01:04:06;;;;;;;55.55;7.97;;;;;;;;;;5489952;25;20006;-77
2024/04/11 01:09:29;;;;;;;41.78;6.97;;;;;;;;;;5489515;25;20002;-77
2024/04/11 01:11:56;;;;;;;44.83;7.75;;;;;;;;;;5489709;25;20374;-77
2024/04/11 01:14:23;;;;;;;58.03;8.38;;;;;;;;;;5489533;25;20005;-77
2024/04/11 01:16:51;;;;;;;52.08;8.25;;;;;;;;;;5489862;25;20002;-77
2024/04/11 01:19:18;;;;;;;55.05;8.50;;;;;;;;;;5489255;25;19999;-77
2024/04/11 01:21:46;;;;;;;50.03;8.98;;;;;;;;;;5489794;25;20429;-76
2024/04/11 01:24:13;;;;;;;63.55;8.70;;;;;;;;;;5489183;25;20429;-77
2024/04/11 01:26:40;;;;;;;64.82;11.55;;;;;;;;;;5503200;25;19994;-77
2024/04/11 01:29:07;;;;;;;56.85;10.07;;;;;;;;;;5489224;25;20010;-77
2024/04/11 01:31:34;;;;;;;58.45;9.68;;;;;;;;;;5489540;25;20021;-77
2024/04/11 01:34:01;;;;;;;78.15;11.15;;;;;;;;;;5489449;25;20010;-77
2024/04/11 01:36:28;;;;;;;53.97;9.80;;;;;;;;;;5489162;25;19994;-77
2024/04/11 01:38:55;;;;;;;71.45;11.23;;;;;;;;;;5489594;25;20290;-77
2024/04/11 01:41:23;;;;;;;64.60;10.13;;;;;;;;;;5489053;25;20005;-77
2024/04/11 01:43:50;;;;;;;;;;;;;;;;;;5490090;25;20002;-77
2024/04/11 01:46:18;;;;;;;;;;;;;;;;;;5489531;25;20413;-77
2024/04/11 01:48:45;;;;;;;;;;;;;;;;;;5489891;25;19920;-77
2024/04/11 01:51:14;;;;;;;;;;;;;;;;;;5489637;25;19935;-76
2024/04/11 01:53:40;;;;;;;;;;;;;;;;;;5489804;25;19927;-77
2024/04/11 01:56:09;;;;;;;;;;;;;;;;;;5487634;25;19924;-77
2024/04/11 01:58:36;;;;;;;;;;;;;;;;;;5487474;25;19927;-77
2024/04/11 02:01:05;;;;;;;;;;;;;;;;;;5489756;25;19919;-77
2024/04/11 02:03:33;;;;;;;;;;;;;;;;;;5489632;25;20314;-77
2024/04/11 02:06:03;;;;;;;;;;;;;;;;;;5489601;25;19920;-77
2024/04/11 02:08:32;;;;;;;;;;;;;;;;;;5489242;25;19992;-77
2024/04/11 02:10:58;;;;;;;;;;;;;;;;;;5489740;25;19927;-77
2024/04/11 02:13:26;;;;;;;;;;;;;;;;;;5489106;25;19953;-77
2024/04/11 02:15:54;;;;;;;;;;;;;;;;;;5489513;25;19920;-77
2024/04/11 02:18:20;;;;;;;;;;;;;;;;;;5489318;25;20419;-77
2024/04/11 02:20:47;;;;;;;;;;;;;;;;;;5487513;25;19923;-77
2024/04/11 02:23:16;;;;;;;;;;;;;;;;;;5488861;25;20359;-77
2024/04/11 02:25:42;;;;;;;;;;;;;;;;;;5497333;25;19931;-77
2024/04/11 02:28:09;;;;;;;;;;;;;;;;;;5495577;25;20357;-77
2024/04/11 02:30:36;;;;;;;;;;;;;;;;;;5489200;25;19928;-77
2024/04/11 02:33:03;;;;;;;;;;;;;;;;;;5489102;25;20234;-77
2024/04/11 02:35:30;;;;;;;;;;;;;;;;;;5488754;25;20350;-77
2024/04/11 02:37:56;;;;;;;;;;;;;;;;;;5489078;25;19944;-77
2024/04/11 02:40:23;;;;;;;;;;;;;;;;;;5488737;25;19927;-77
2024/04/11 02:42:50;;;;;;;;;;;;;;;;;;5489160;25;19932;-77
2024/04/11 02:45:18;;;;;;;;;;;;;;;;;;5488660;25;20339;-77
2024/04/11 02:47:46;;;;;;;;;;;;;;;;;;5487364;25;19923;-77
2024/04/11 02:50:15;;;;;;;;;;;;;;;;;;5486453;25;19924;-78
2024/04/11 02:52:42;;;;;;;;;;;;;;;;;;5486899;25;19920;-77
2024/04/11 02:55:10;;;;;;;;;;;;;;;;;;5488475;25;20235;-77
2024/04/11 02:57:37;;;;;;;;;;;;;;;;;;5488886;25;19931;-77
2024/04/11 03:00:04;;;;;;;;;;;;;;;;;;5488651;25;19955;-77
2024/04/11 03:02:33;;;;;;;;;;;;;;;;;;5488453;25;20111;-77
2024/04/11 03:05:01;;;;;;;;;;;;;;;;;;5488476;25;19920;-77
2024/04/11 03:07:29;;;;;;;;;;;;;;;;;;5488365;25;19936;-77
2024/04/11 03:09:56;;;;;;;;;;;;;;;;;;5490456;25;20358;-77
2024/04/11 03:12:23;;;;;;;;;;;;;;;;;;5491878;25;19928;-77
2024/04/11 03:14:50;;;;;;;;;;;;;;;;;;5490335;25;20359;-77
2024/04/11 03:17:17;;;;;;;;;;;;;;;;;;5491944;25;19923;-77
2024/04/11 03:19:45;;;;;;;;;;;;;;;;;;5490174;25;20343;-77
2024/04/11 03:22:11;;;;;;;;;;;;;;;;;;5491791;25;20403;-77
2024/04/11 03:24:38;;;;;;;;;;;;;;;;;;5492046;25;19931;-77
2024/04/11 03:27:05;;;;;;;;;;;;;;;;;;5507053;25;19923;-77
2024/04/11 03:29:32;;;;;;;;;;;;;;;;;;5491743;25;19955;-76
2024/04/11 03:31:58;;;;;;;;;;;;;;;;;;5490089;25;19920;-77
2024/04/11 03:34:25;;;;;;;;;;;;;;;;;;5491395;25;19992;-77
2024/04/11 03:36:54;;;;;;;;;;;;;;;;;;5491900;25;20322;-77
2024/04/11 03:39:21;;;;;;;;;;;;;;;;;;5491475;25;19920;-78
2024/04/11 03:41:57;;;;;;;;;;;;;;;;;;5491804;25;19936;-77
2024/04/11 03:44:24;;;;;;;;;;;;;;;;;;5491585;25;19936;-77
2024/04/11 03:46:52;;;;;;;;;;;;;;;;;;5491702;25;19935;-77
2024/04/11 03:49:19;;;;;;;;;;;;;;;;;;5491409;25;20399;-77
2024/04/11 03:51:49;;;;;;;;;;;;;;;;;;5520490;25;19926;-77
2024/04/11 03:54:16;;;;;;;;;;;;;;;;;;5489343;25;19924;-77
2024/04/11 03:56:44;;;;;;;;;;;;;;;;;;5491628;25;20243;-77
2024/04/11 03:59:11;;;;;;;;;;;;;;;;;;5489516;25;20300;-77
2024/04/11 04:01:38;;;;;;;;;;;;;;;;;;5491604;25;19920;-77
2024/04/11 04:04:05;;;;;;;;;;;;;;;;;;5491242;25;19992;-77
2024/04/11 04:06:33;;;;;;;;;;;;;;;;;;5491331;25;20300;-77
2024/04/11 04:09:07;;;;;;;;;;;;;;;;;;5491489;25;19931;-77
2024/04/11 04:11:36;;;;;;;;;;;;;;;;;;5489360;25;19935;-77
2024/04/11 04:14:08;;;;;;;;;;;;;;;;;;5491104;25;19920;-76
2024/04/11 04:16:38;;;;;;;;;;;;;;;;;;5491372;25;19927;-77
2024/04/11 04:19:07;;;;;;;;;;;;;;;;;;5490929;25;19919;-77
2024/04/11 04:21:35;;;;;;;;;;;;;;;;;;5490678;25;19919;-77
2024/04/11 04:24:05;;;;;;;;;;;;;;;;;;5491134;25;19938;-77
2024/04/11 04:26:34;;;;;;;;;;;;;;;;;;5506301;25;20243;-77
2024/04/11 04:29:01;;;;;;;;;;;;;;;;;;5491088;25;19927;-76
2024/04/11 04:31:29;;;;;;;;;;;;;;;;;;5490609;25;19920;-76
2024/04/11 04:33:59;;;;;;;;;;;;;;;;;;5491295;25;20335;-77
2024/04/11 04:36:28;;;;;;;;;;;;;;;;;;5490660;25;19927;-77
2024/04/11 04:38:56;;;;;;;;;;;;;;;;;;5491286;25;19935;-78
2024/04/11 04:41:25;;;;;;;;;;;;;;;;;;5488572;25;19981;-78
2024/04/11 04:43:54;;;;;;;;;;;;;;;;;;5490640;25;19992;-77
2024/04/11 04:46:22;;;;;;;;;;;;;;;;;;5490127;25;19956;-77
2024/04/11 04:48:49;;;;;;;;;;;;;;;;;;5490336;25;19927;-76
2024/04/11 04:51:19;;;;;;;;;;;;;;;;;;5487665;25;19923;-77
2024/04/11 04:53:49;;;;;;;;;;;;;;;;;;5489746;25;19955;-78
2024/04/11 04:56:18;;;;;;;;;;;;;;;;;;5488744;25;19987;-77
2024/04/11 04:58:45;;;;;;;;;;;;;;;;;;5488291;25;20262;-77
2024/04/11 05:01:12;;;;;;;;;;;;;;;;;;5487736;25;19920;-77
2024/04/11 05:03:39;;;;;;;;;;;;;;;;;;5485504;25;20363;-77
2024/04/11 05:06:12;;;;;;;;;;;;;;;;;;5488437;25;19919;-77
2024/04/11 05:08:45;;;;;;;;;;;;;;;;;;5485988;25;20304;-77
2024/04/11 05:11:13;;;;;;;;;;;;;;;;;;5487110;25;19955;-77
2024/04/11 05:13:40;;;;;;;;;;;;;;;;;;5484763;25;20304;-77
2024/04/11 05:16:09;;;;;;;;;;;;;;;;;;5489269;25;19924;-79
2024/04/11 05:18:40;;;;;;;;;;;;;;;;;;5488256;25;20299;-78
2024/04/11 05:21:08;;;;;;;;;;;;;;;;;;5485538;25;19927;-78
2024/04/11 05:23:36;;;;;;;;;;;;;;;;;;5490265;25;19931;-78
2024/04/11 05:26:07;;;;;;;;;;;;;;;;;;5501811;25;19923;-78
2024/04/11 05:28:35;;;;;;;;;;;;;;;;;;5489863;25;19920;-77
2024/04/11 05:31:06;;;;;;;;;;;;;;;;;;5489568;25;19926;-77
2024/04/11 05:33:37;;;;;;;;;;;;;;;;;;5489444;25;19988;-78
2024/04/11 05:36:06;;;;;;;;;;;;;;;;;;5489689;25;20358;-76
2024/04/11 05:38:37;;;;;;;;;;;;;;;;;;5484207;25;20258;-77
2024/04/11 05:41:04;;;;;;;;;;;;;;;;;;5484321;25;19935;-77
2024/04/11 05:43:32;;;;;;;;;;;;;;;;;;5486112;25;20312;-77
2024/04/11 05:46:04;;;;;;;;;;;;;;;;;;5485364;25;19953;-77
2024/04/11 05:48:31;;;;;;;;;;;;;;;;;;5483269;25;19923;-77
2024/04/11 05:50:58;;;;;;;;;;;;;;;;;;5482973;25;19940;-77
2024/04/11 05:53:26;;;;;;;;;;;;;;;;;;5486185;25;19923;-78
2024/04/11 05:55:53;;;;;;;;;;;;;;;;;;5488191;25;20227;-77
2024/04/11 05:58:20;;;;;;;;;;;;;;;;;;5488137;25;20227;-77
2024/04/11 06:00:49;;;;;;;;;;;;;;;;;;5489842;25;19920;-77
2024/04/11 06:03:16;;;;;;;;;;;;;;;;;;5489351;25;19932;-77
2024/04/11 06:05:46;;;;;;;;;;;;;;;;;;5489784;25;20211;-77
2024/04/11 06:08:14;;;;;;;;;;;;;;;;;;5489258;25;19931;-77
2024/04/11 06:10:41;;;;;;;;;;;;;;;;;;5489485;25;20299;-77
2024/04/11 06:13:07;;;;;;;;;;;;;;;;;;5487393;25;19932;-77
2024/04/11 06:15:34;;;;;;;;;;;;;;;;;;5489631;25;19927;-78
2024/04/11 06:18:09;;;;;;;;;;;;;;;;;;5489687;25;19932;-78
2024/04/11 06:20:38;;;;;;;;;;;;;;;;;;5489093;25;20315;-78
2024/04/11 06:23:08;;;;;;;;;;;;;;;;;;5489008;25;20351;-77
2024/04/11 06:25:36;;;;;;;;;;;;;;;;;;5495502;25;19919;-78
2024/04/11 06:28:04;;;;;;;;;;;;;;;;;;5489564;25;19990;-78
2024/04/11 06:30:35;;;;;;;;;;;;;;;;;;5479753;25;19925;-78
2024/04/11 06:33:02;;;;;;;;;;;;;;;;;;5481055;25;19932;-78
2024/04/11 06:35:29;;;;;;;;;;;;;;;;;;5452359;25;19924;-78
2024/04/11 06:37:56;;;;;;;;;;;;;;;;;;5452708;25;19924;-77
2024/04/11 06:40:23;;;;;;;;;;;;;;;;;;5452675;25;19992;-77
2024/04/11 06:42:50;;;;;;;;;;;;;;;;;;5452930;25;19992;-78
2024/04/11 06:45:19;;;;;;;;;;;;;;;;;;5455882;25;19932;-77
2024/04/11 06:47:47;;;;;;;;;;;;;;;;;;5456082;25;19928;-77
2024/04/11 06:50:19;;;;;;;;;;;;;;;;;;5483628;25;19920;-77
2024/04/11 06:52:47;;;;;;;;;;;;;;;;;;5456122;25;19928;-77
2024/04/11 06:55:14;;;;;;;;;;;;;;;;;;5453805;25;19920;-77
2024/04/11 06:57:44;;;;;;;;;;;;;;;;;;5456219;25;19936;-78
2024/04/11 07:00:35;;;;;;;;;;;;;;;;;;5454909;25;20009;-77
2024/04/11 07:03:13;;;;;;;;;;;;;;;;;;5456037;25;20235;-78
2024/04/11 07:05:57;;;;;;;;;;;;;;;;;;5454080;26;19921;-77
2024/04/11 07:08:31;;;;;;;;;;;;;;;;;;5455552;25;20330;-78
2024/04/11 07:11:08;;;;;;;;;;;;;;;;;;5453835;26;19921;-77
2024/04/11 07:13:35;;;;;;;;;;;;;;;;;;5456380;25;19939;-78
2024/04/11 07:16:06;;;;;;;;;;;;;;;;;;5455963;25;19989;-77
2024/04/11 07:18:44;;;;;;;;;;;;;;;;;;5453894;26;19921;-77
2024/04/11 07:21:13;;;;;;;;;;;;;;;;;;5455315;25;20376;-78
2024/04/11 07:23:42;;;;;;;;;;;;;;;;;;5455767;25;19920;-78
2024/04/11 07:26:12;;;;;;;;;;;;;;;;;;5484809;25;20242;-78
2024/04/11 07:28:44;;;;;;;;;;;;;;;;;;5474709;25;19932;-77
2024/04/11 07:31:14;;;;;;;;;;;;;;;;;;5491864;25;19935;-78
2024/04/11 07:33:43;;;;;;;;;;;;;;;;;;5491629;25;19927;-78
2024/04/11 07:36:13;;;;;;;;;;;;;;;;;;5491634;25;20223;-77
2024/04/11 07:38:40;;;;;;;;;;;;;;;;;;5490191;25;19931;-78
2024/04/11 07:41:20;;;;;;;;;;;;;;;;;;5491436;25;20338;-77
2024/04/11 07:43:49;;;;;;;;;;;;;;;;;;5490714;25;19926;-78
2024/04/11 07:46:15;;;;;;;;;;;;;;;;;;5489575;25;20414;-78
2024/04/11 07:48:51;;;;;;;;;;;;;;;;;;5491718;25;20304;-78
2024/04/11 07:51:19;;;;;;;;;;;;;;;;;;5491918;25;19924;-77
2024/04/11 07:53:48;;;;;;;;;;;;;;;;;;5491939;25;20292;-77
2024/04/11 07:56:23;;;;;;;;;;;;;;;;;;5490133;25;19920;-78
2024/04/11 07:58:53;;;;;;;;;;;;;;;;;;5489717;25;19931;-77
2024/04/11 08:01:30;;;;;;;;;;;;;;;;;;5491210;25;19927;-77
2024/04/11 08:04:02;;;;;;;;;;;;;;;;;;5489654;25;19934;-77
2024/04/11 08:06:30;;;;;;;;;;;;;;;;;;5491025;25;19935;-77
2024/04/11 08:08:58;;;;;;;;;;;;;;;;;;5489811;25;19932;-77
2024/04/11 08:11:27;;;;;;;;;;;;;;;;;;5491264;25;19968;-77
2024/04/11 08:13:54;;;;;;;;;;;;;;;;;;5489728;25;19976;-78
2024/04/11 08:16:21;;;;;;;;;;;;;;;;;;5490972;25;19988;-78
2024/04/11 08:18:48;;;;;;;;;;;;;;;;;;5491358;25;19985;-78
2024/04/11 08:21:16;;;;;;;;;;;;;;;;;;5490425;25;19927;-78
2024/04/11 08:23:45;;;;;;;;;;;;;;;;;;5491204;25;19920;-77
2024/04/11 08:26:15;;;;;;;;;;;;;;;;;;5506007;25;19928;-77
2024/04/11 08:28:43;;;;;;;;;;;;;;;;;;5490656;25;19952;-77
2024/04/11 08:31:11;;;;;;;;;;;;;;;;;;5488653;25;20223;-78
2024/04/11 08:33:38;;;;;;;;;;;;;;;;;;5490843;25;19920;-77
2024/04/11 08:36:08;;;;;;;;;;;;;;;;;;5490423;25;19924;-77
2024/04/11 08:38:36;;;;;;;;;;;;;;;;;;5491017;25;19920;-77
2024/04/11 08:41:12;;;;;;;;;;;;;;;;;;5491279;25;19987;-77
2024/04/11 08:43:45;;;;;;;;;;;;;;;;;;5490607;25;19946;-77
2024/04/11 08:46:12;;;;;;;;;;;;;;;;;;5489895;25;19936;-77
2024/04/11 08:48:39;;;;;;;;;;;;;;;;;;5490620;25;20230;-77
2024/04/11 08:51:09;;;;;;;;;;;;;;;;;;5490781;25;19944;-78
2024/04/11 08:53:39;;;;;;;;;;;;;;;;;;5490749;25;20342;-77
2024/04/11 08:56:27;;;;;;;;;;;;;;;;;;5490815;25;19937;-77
2024/04/11 08:58:53;;;;;;;;;;;;;;;;;;5490746;25;20238;-77
2024/04/11 09:01:20;;;;;;;;;;;;;;;;;;5490350;25;19927;-77
2024/04/11 09:03:48;;;;;;;;;;;;;;;;;;5490670;25;19927;-77
2024/04/11 09:06:18;;;;;;;;;;;;;;;;;;5490119;25;19927;-77
2024/04/11 09:08:46;;;;;;;;;;;;;;;;;;5490394;25;19931;-77
2024/04/11 09:11:14;;;;;;;;;;;;;;;;;;5490233;25;19921;-77
2024/04/11 09:13:41;;;;;;;;;;;;;;;;;;5490485;25;19988;-78
2024/04/11 09:16:08;;;;;;;;;;;;;;;;;;5490293;25;20000;-77
2024/04/11 09:18:35;;;;;;;;;;;;;;;;;;5456511;26;19920;-77
2024/04/11 09:21:06;;;;;;;;;;;;;;;;;;5490556;25;19920;-78
2024/04/11 09:23:49;;;;;;;;;;;;;;;;;;5490390;25;19926;-78
2024/04/11 09:26:17;;;;;;;;;;;;;;;;;;5505405;25;19927;-77
2024/04/11 09:28:44;;;;;;;;;;;;;;;;;;5490419;25;19920;-77
2024/04/11 09:31:18;;;;;;;;;;;;;;;;;;5489857;25;20074;-77
2024/04/11 09:33:53;;;;;;;;;;;;;;;;;;5490363;25;19924;-77
2024/04/11 09:36:23;;;;;;;;;;;;;;;;;;5489865;25;19927;-77
2024/04/11 09:38:53;;;;;;;;;;;;;;;;;;5490381;25;20207;-77
2024/04/11 09:41:20;;;;;;;;;;;;;;;;;;5489516;25;19923;-77
2024/04/11 09:43:51;;;;;;;;;;;;;;;;;;5490013;25;19923;-77
2024/04/11 09:46:22;;;;;;;;;;;;;;;;;;5489458;25;19928;-77
2024/04/11 09:48:51;;;;;;;;;;;;;;;;;;5490116;25;20020;-77
2024/04/11 09:51:20;;;;;;;;;;;;;;;;;;5488288;25;19923;-78
2024/04/11 09:53:46;;;;;;;;;;;;;;;;;;5489214;25;19948;-77
2024/04/11 09:56:15;;;;;;;;;;;;;;;;;;5489641;25;20234;-77
2024/04/11 09:58:43;;;;;;;;;;;;;;;;;;5489882;25;19927;-77
2024/04/11 10:01:32;;;;;;;;;;;;;;;;;;5487647;25;19932;-77
2024/04/11 10:04:04;;;;;;;;;;;;;;;;;;5489777;25;19920;-77
2024/04/11 10:06:35;;;;;;;;;;;;;;;;;;5489519;25;19932;-77
2024/04/11 10:09:11;;;;;;;;;;;;;;;;;;5489682;25;19935;-77
2024/04/11 10:11:43;;;;;;;;;;;;;;;;;;5489678;25;20402;-77
2024/04/11 10:14:14;;;;;;;;;;;;;;;;;;5489195;25;19920;-77
2024/04/11 10:16:48;;;;;;;;;;;;;;;;;;5489731;25;19926;-77
2024/04/11 10:19:26;;;;;;;;;;;;;;;;;;5486473;25;19924;-78
2024/04/11 10:22:24;;;;;;;;;;;;;;;;;;5487675;25;19927;-78
2024/04/11 10:25:06;;;;;;;;;;;;;;;;;;5485991;25;19920;-77
2024/04/11 10:27:37;;;;;;;;;;;;;;;;;;5504084;25;19920;-77
2024/04/11 10:30:06;;;;;;;;;;;;;;;;;;5489267;25;19928;-77
2024/04/11 10:32:36;;;;;;;;;;;;;;;;;;5488946;25;20231;-77
2024/04/11 10:35:10;;;;;;;;;;;;;;;;;;5488726;25;19923;-77
2024/04/11 10:37:40;;;;;;;;;;;;;;;;;;5487127;25;19928;-77
2024/04/11 10:40:10;;;;;;;;;;;;;;;;;;5488380;25;20383;-77
2024/04/11 10:42:39;;;;;;;;;;;;;;;;;;5489002;25;19985;-77
2024/04/11 10:45:11;;;;;;;;;;;;;;;;;;5486861;25;20311;-77
2024/04/11 10:47:41;;;;;;;;;;;;;;;;;;5489043;25;19920;-77
2024/04/11 10:50:15;;;;;;;;;;;;;;;;;;5488280;25;19987;-77
2024/04/11 10:52:45;;;;;;;;;;;;;;;;;;5488734;25;20270;-77
2024/04/11 10:55:22;;;;;;;;;;;;;;;;;;5488480;25;19919;-77
2024/04/11 11:06:15;;;;;;;;;;;;;;;;;;5488212;25;19984;-78
2024/04/11 11:08:45;;;;;;;;;;;;;;;;;;5488557;25;20343;-77
2024/04/11 11:11:14;;;;;;;;;;;;;;;;;;5487493;25;19952;-77
2024/04/11 11:13:42;;;;;;;;;;;;;;;;;;5488481;25;19927;-77
2024/04/11 11:16:12;;;;;;;;;;;;;;;;;;5488279;25;19920;-77
2024/04/11 11:18:43;;;;;;;;;;;;;;;;;;5488540;25;19927;-77
2024/04/11 11:21:16;;;;;;;;;;;;;;;;;;5487575;25;20238;-77
2024/04/11 11:23:46;;;;;;;;;;;;;;;;;;5488239;25;20235;-77
2024/04/11 11:26:13;;;;;;;;;;;;;;;;;;5503056;25;19930;-77
2024/04/11 11:28:39;;;;;;;;;;;;;;;;;;5488164;25;19988;-77
2024/04/11 11:31:15;;;;;;;;;;;;;;;;;;5489397;25;19924;-77
2024/04/11 11:33:41;;;;;;;;;;;;;;;;;;5491945;25;19952;-77
2024/04/11 11:36:08;;;;;;;;;;;;;;;;;;5491436;25;19931;-76
2024/04/11 11:38:35;;;;;;;;;;;;;;;;;;5492040;25;19985;-77
2024/04/11 11:41:04;;;;;;;;;;;;;;;;;;5490633;25;19923;-77
2024/04/11 11:43:37;;;;;;;;;;;;;;;;;;5490615;25;19931;-77
2024/04/11 11:48:49;;;;;;;;;;;;;;;;;;5491591;25;20064;-77
2024/04/11 11:51:19;;;;;;;;;;;;;;;;;;5489302;25;19927;-77
2024/04/11 11:53:49;;;;;;;;;;;;;;;;;;5491795;25;19923;-77
2024/04/11 11:56:16;;;;;;;;;;;;;;;;;;5490776;25;19927;-77
2024/04/11 11:58:46;;;;;;;;;;;;;;;;;;5491547;25;19928;-77
2024/04/11 12:03:59;;;;;;;;;;;;;;;;;;5491549;25;20407;-77
2024/04/11 12:06:33;;;;;;;;;;;;;;;;;;5489321;25;19920;-77
2024/04/11 12:09:09;;;;;;;;;;;;;;;;;;5490076;25;20313;-77
2024/04/11 12:12:30;;;;;;;;;;;;;;;;;;5491306;25;20219;-77
2024/04/11 12:14:34;;;;;;;;;;;;;;;;;;5496134;25;20219;-77
2024/04/11 12:17:04;;;;;;;;;;;;;;;;;;5491554;25;19928;-77
2024/04/11 12:19:32;;;;;;;;;;;;;;;;;;5489439;25;20262;-77
2024/04/11 12:22:33;;;;;;;;;;;;;;;;;;5487610;25;19926;-77
2024/04/11 12:24:52;;;;;;;;;;;;;;;;;;5490290;25;19935;-77
2024/04/11 12:27:23;;;;;;;;;;;;;;;;;;5506103;25;19931;-77
2024/04/11 12:29:50;;;;;;;;;;;;;;;;;;5453213;26;20340;-77
2024/04/11 12:32:18;;;;;;;;;;;;;;;;;;5454517;25;19920;-77
2024/04/11 12:34:45;;;;;;;;;;;;;;;;;;5454594;25;19973;-77
2024/04/11 12:37:15;;;;;;;;;;;;;;;;;;5452894;25;19924;-77
2024/04/11 12:39:53;;;;;;;;;;;;;;;;;;5454301;25;20235;-77
2024/04/11 12:42:22;;;;;;;;;;;;;;;;;;5452236;25;19933;-77
2024/04/11 12:44:55;;;;;;;;;;;;;;;;;;5454609;25;19989;-77
2024/04/11 12:47:38;;;;;;;;;;;;;;;;;;5454669;25;20224;-77
2024/04/11 12:50:12;;;;;;;;;;;;;;;;;;5454340;25;19931;-77
2024/04/11 12:52:49;;;;;;;;;;;;;;;;;;5452789;26;19921;-77
2024/04/11 12:55:24;;;;;;;;;;;;;;;;;;5453975;25;20336;-77
2024/04/11 12:57:52;;;;;;;;;;;;;;;;;;5454471;25;19932;-77
2024/04/11 13:03:15;;;;;;;;;;;;;;;;;;5453959;25;19929;-76
2024/04/11 13:05:52;;;;;;;;;;;;;;;;;;5452536;26;19932;-77
2024/04/11 13:08:19;;;;;;;;;;;;;;;;;;5454238;25;20297;-77
2024/04/11 13:11:06;;;;;;;;;;;;;;;;;;5454304;25;19920;-77
2024/04/11 13:13:38;;;;;;;;;;;;;;;;;;5454104;25;19927;-77
2024/04/11 13:16:09;;;;;;;;;;;;;;;;;;5481705;25;19949;-77
2024/04/11 13:18:38;;;;;;;;;;;;;;;;;;5453639;25;19991;-77
2024/04/11 13:21:30;;;;;;;;;;;;;;;;;;5453786;25;19927;-77
2024/04/11 13:23:58;;;;;;;;;;;;;;;;;;5452369;26;19920;-77
2024/04/11 13:26:25;;;;;;;;;;;;;;;;;;5487336;25;19986;-77
2024/04/11 13:28:58;;;;;;;;;;;;;;;;;;5490248;25;19935;-77
2024/04/11 13:31:26;;;;;;;;;;;;;;;;;;5489916;25;20334;-77
2024/04/11 13:33:54;;;;;;;;;;;;;;;;;;5490330;25;19919;-77
2024/04/11 13:36:23;;;;;;;;;;;;;;;;;;5490161;25;19920;-77
2024/04/11 13:38:51;;;;;;;;;;;;;;;;;;5490129;25;19935;-77
2024/04/11 13:41:45;;;;;;;;;;;;;;;;;;5488663;25;19924;-77
2024/04/11 13:44:05;;;;;;;;;;;;;;;;;;5489285;25;20331;-77
2024/04/11 13:46:35;;;;;;;;;;;;;;;;;;5490191;25;19926;-77
2024/04/11 13:49:24;;;;;;;;;;;;;;;;;;5490001;25;19920;-78
2024/04/11 13:51:55;;;;;;;;;;;;;;;;;;5488682;25;20350;-77
2024/04/11 13:54:23;;;;;;;;;;;;;;;;;;5488399;25;19923;-77
2024/04/11 13:56:59;;;;;;;;;;;;;;;;;;5489875;25;19948;-77
2024/04/11 13:59:30;;;;;;;;;;;;;;;;;;5489550;25;19924;-77
2024/04/11 14:02:09;;;;;;;;;;;;;;;;;;5489652;25;20598;-77
2024/04/11 14:04:58;;;;;;;;;;;;;;;;;;5488007;25;19932;-77
2024/04/11 14:07:27;;;;;;;;;;;;;;;;;;5489474;25;20364;-77
2024/04/11 14:09:55;;;;;;;;;;;;;;;;;;5489029;25;19920;-77
2024/04/11 14:12:24;;;;;;;;;;;;;;;;;;5489099;25;19991;-77
2024/04/11 14:14:51;;;;;;;;;;;;;;;;;;5487909;25;19948;-77
2024/04/11 14:17:22;;;;;;;;;;;;;;;;;;5488618;25;19927;-77
2024/04/11 14:22:49;;;;;;;;;;;;;;;;;;5488992;25;19927;-77
2024/04/11 14:25:29;;;;;;;;;;;;;;;;;;5490497;25;19920;-77
2024/04/11 14:28:00;;;;;;;;;;;;;;;;;;5497478;25;19919;-77
2024/04/11 14:30:33;;;;;;;;;;;;;;;;;;5488700;25;19924;-77
2024/04/11 14:33:12;;;;;;;;;;;;;;;;;;5487297;25;19927;-78
2024/04/11 14:38:32;;;;;;;;;;;;;;;;;;5488772;25;19920;-77
2024/04/11 14:41:04;;;;;;;;;;;;;;;;;;5487441;25;19920;-77
2024/04/11 14:43:32;;;;;;;;;;;;;;;;;;5488814;25;19924;-77
2024/04/11 14:45:59;;;;;;;;;;;;;;;;;;5488825;25;20347;-77
2024/04/11 14:48:33;;;;;;;;;;;;;;;;;;5488940;25;19920;-77
2024/04/11 14:51:08;;;;;;;;;;;;;;;;;;5488636;25;19952;-78
2024/04/11 14:53:38;;;;;;;;;;;;;;;;;;5488529;25;19968;-77
2024/04/11 14:56:17;;;;;;;;;;;;;;;;;;5488282;25;20237;-77
2024/04/11 14:58:48;;;;;;;;;;;;;;;;;;5488710;25;19988;-78
2024/04/11 15:01:16;;;;;;;;;;;;;;;;;;5486239;25;20226;-77
2024/04/11 15:03:47;;;;;;;;;;;;;;;;;;5485695;25;20256;-78
2024/04/11 15:06:15;;;;;;;;;;;;;;;;;;5491945;25;19928;-78
2024/04/11 15:08:43;;;;;;;;;;;;;;;;;;5492491;25;19919;-77
2024/04/11 15:11:12;;;;;;;;;;;;;;;;;;5491669;25;19939;-78
2024/04/11 15:13:40;;;;;;;;;;;;;;;;;;5492053;25;19919;-78
2024/04/11 15:18:53;;;;;;;;;;;;;;;;;;5492087;25;19988;-78
2024/04/11 15:21:34;;;;;;;;;;;;;;;;;;5491762;25;19920;-77
2024/04/11 15:24:06;;;;;;;;;;;;;;;;;;5492048;25;20334;-77
2024/04/11 15:26:36;;;;;;;;;;;;;;;;;;5507092;25;19931;-77
2024/04/11 15:29:12;;;;;;;;;;;;;;;;;;5492161;25;19920;-77
2024/04/11 15:31:41;;;;;;;;;;;;;;;;;;5491586;25;20224;-78
2024/04/11 15:34:08;;;;;;;;;;;;;;;;;;5489959;25;19936;-77
2024/04/11 15:36:52;;;;;;;;;;;;;;;;;;5491937;25;19919;-78
2024/04/11 15:39:28;;;;;;;;;;;;;;;;;;5489654;25;19919;-78
2024/04/11 15:42:00;;;;;;;;;;;;;;;;;;5491839;25;19989;-77
2024/04/11 15:44:36;;;;;;;;;;;;;;;;;;5491292;25;19952;-77
2024/04/11 15:47:04;;;;;;;;;;;;;;;;;;5491191;25;19926;-77
2024/04/11 15:49:32;;;;;;;;;;;;;;;;;;5491715;25;19919;-78
2024/04/11 15:52:06;;;;;;;;;;;;;;;;;;5491501;25;19927;-77
2024/04/11 15:57:20;;;;;;;;;;;;;;;;;;5491328;25;19932;-78
2024/04/11 15:59:47;;;;;;;;;;;;;;;;;;5492050;25;19930;-77
2024/04/11 16:02:18;;;;;;;;;;;;;;;;;;5489698;25;20377;-78
2024/04/11 16:04:50;;;;;;;;;;;;;;;;;;5491530;25;20345;-77
2024/04/11 16:07:26;;;;;;;;;;;;;;;;;;5491445;25;19988;-77
2024/04/11 16:09:54;;;;;;;;;;;;;;;;;;5490992;25;20372;-78
2024/04/11 16:12:21;;;;;;;;;;;;;;;;;;5490673;25;19920;-77
2024/04/11 16:14:48;;;;;;;;;;;;;;;;;;5490793;25;20347;-78
2024/04/11 16:17:15;;;;;;;;;;;;;;;;;;5489033;25;20343;-80
2024/04/11 16:19:44;;;;;;;;;;;;;;;;;;5490610;25;19928;-78
2024/04/11 16:22:11;;;;;;;;;;;;;;;;;;5488207;25;19932;-78
2024/04/11 16:24:50;;;;;;;;;;;;;;;;;;5490268;25;20339;-78
2024/04/11 16:27:23;;;;;;;;;;;;;;;;;;5492608;25;20311;-77
2024/04/11 16:29:55;;;;;;;;;;;;;;;;;;5485729;25;20367;-77
2024/04/11 16:32:22;;;;;;;;;;;;;;;;;;5490267;25;19920;-78
2024/04/11 16:34:54;;;;;;;;;;;;;;;;;;5489571;25;19920;-77
2024/04/11 16:37:26;;;;;;;;;;;;;;;;;;5490463;25;19920;-77
2024/04/11 16:39:53;;;;;;;;;;;;;;;;;;5510624;25;19919;-78
2024/04/11 16:44:59;;;;;;;;;;;;;;;;;;5526670;25;19927;-77
2024/04/11 16:47:31;;;;;;;;;;;;;;;;;;5525466;25;19920;-77
2024/04/11 16:50:02;;;;;;;;;;;;;;;;;;5527670;25;19926;-77
2024/04/11 16:52:32;;;;;;;;;;;;;;;;;;5511652;25;19924;-78
2024/04/11 16:55:02;;;;;;;;;;;;;;;;;;5486330;25;19922;-77
2024/04/11 16:57:30;;;;;;;;;;;;;;;;;;5490638;25;19920;-78
2024/04/11 17:00:00;;;;;;;;;;;;;;;;;;5490499;25;19920;-77
2024/04/11 17:02:28;;;;;;;;;;;;;;;;;;5489264;25;19924;-78
2024/04/11 17:05:01;;;;;;;;;;;;;;;;;;5483190;25;20406;-78
2024/04/11 17:07:36;;;;;;;;;;;;;;;;;;5488983;25;20481;-78
2024/04/11 17:10:16;;;;;;;;;;;;;;;;;;5490378;25;20063;-78
2024/04/11 17:12:48;;;;;;;;;;;;;;;;;;5489427;25;19928;-78
2024/04/11 17:15:15;;;;;;;;;;;;;;;;;;5489407;25;19939;-78
2024/04/11 17:25:38;;;;;;;;;;;;;;;;;;5488752;25;20004;-78
2024/04/11 17:41:57;;;;;;;;;;;;;;;;;;5486645;25;20342;-78
2024/04/11 17:44:40;;;;;;;;;;;;;;;;;;5486433;25;19924;-78